Strona główna
METAR-TAF:

METAR-TAF

Lotnisko :

Port lotniczy Sakon Nakhon

Sakon Nakhon, Tajlandia

Szerokość geograficzna: 17-11-42N, Długość geograficzna: 104-07-08E, wysokość: 161 m

Aktualna obserwacja pogody

Raport powstał 21 minut temu, godzina 06:00 UTC
Wiatr 6 kt od południowy wschód, zmienny między wschód i południe
Temperatura 30°C
Wilgotność 40%
Ciśnienie 1012 hPa
Widzialność 10 km lub więcej
Mało chmury na wysokości 4500 ft

METAR: VTUI 280600Z 13006KT 090V170 9999 FEW045 30/15 Q1012 NOSIG

czas: 13:21 (06:21 UTC)

Prognoza

Raport powstał 1 godzina i 21 minut temu, godzina 05:00 UTC
Prognoza ważna od 28 godzina 06 UTC do 29 godzina 06 UTC
Wiatr 6 kt od południowy wschód
Widzialność: 9000 m

TAF: VTUI 280500Z 2806/2906 13006KT 9000 NSC

Obserwacja i prognoza pogody dla ponad 4000 lotnisk (raport METAR i TAF).

Dostępne stacje oznaczono żółtymi i czerwonymi punktami na mapie.

Najedź kursorem aby zobaczyć nazwę stacji.

Kliknij aby zobaczyć obserwacje i prognozy pogody.

Aby zmienić mapę: kliknij na zielony przycisk z czarnym krzyżykiem, aby powiększyć; na zielony przycisk z myślnikiem, aby pomniejszyć; na zielone strzałki, aby przejść do map sąsiednich.


METAR-TAF: